sensor_id;sensor_type;location;lat;lon;timestamp;temperature;humidity
49321;DHT22;35817;44.498;0.166;2022-12-05T00:01:25;3.70;99.90
49321;DHT22;35817;44.498;0.166;2022-12-05T00:03:53;3.70;99.90
49321;DHT22;35817;44.498;0.166;2022-12-05T00:06:19;3.70;99.90
49321;DHT22;35817;44.498;0.166;2022-12-05T00:08:46;3.70;99.90
49321;DHT22;35817;44.498;0.166;2022-12-05T00:11:14;3.70;99.90
49321;DHT22;35817;44.498;0.166;2022-12-05T00:13:41;3.60;99.90
49321;DHT22;35817;44.498;0.166;2022-12-05T00:16:13;3.60;99.90
49321;DHT22;35817;44.498;0.166;2022-12-05T00:18:39;3.60;99.90
49321;DHT22;35817;44.498;0.166;2022-12-05T00:21:11;3.50;99.90
49321;DHT22;35817;44.498;0.166;2022-12-05T00:23:37;3.50;99.90
49321;DHT22;35817;44.498;0.166;2022-12-05T00:26:04;3.50;99.90
49321;DHT22;35817;44.498;0.166;2022-12-05T00:28:31;3.50;99.90
49321;DHT22;35817;44.498;0.166;2022-12-05T00:31:02;3.40;99.90
49321;DHT22;35817;44.498;0.166;2022-12-05T00:33:28;3.40;99.90
49321;DHT22;35817;44.498;0.166;2022-12-05T00:35:53;3.30;99.90
49321;DHT22;35817;44.498;0.166;2022-12-05T00:38:19;3.30;99.90
49321;DHT22;35817;44.498;0.166;2022-12-05T00:40:45;3.30;99.90
49321;DHT22;35817;44.498;0.166;2022-12-05T00:43:10;3.20;99.90
49321;DHT22;35817;44.498;0.166;2022-12-05T00:45:36;3.20;99.90
49321;DHT22;35817;44.498;0.166;2022-12-05T00:48:02;3.10;99.90
49321;DHT22;35817;44.498;0.166;2022-12-05T00:50:27;3.10;99.90
49321;DHT22;35817;44.498;0.166;2022-12-05T00:52:53;3.10;99.90
49321;DHT22;35817;44.498;0.166;2022-12-05T00:55:19;3.10;99.90
49321;DHT22;35817;44.498;0.166;2022-12-05T00:57:44;3.10;99.90
49321;DHT22;35817;44.498;0.166;2022-12-05T01:00:10;3.10;99.90
49321;DHT22;35817;44.498;0.166;2022-12-05T01:02:36;3.00;99.90
49321;DHT22;35817;44.498;0.166;2022-12-05T01:05:02;3.00;99.90
49321;DHT22;35817;44.498;0.166;2022-12-05T01:07:28;3.00;99.90
49321;DHT22;35817;44.498;0.166;2022-12-05T01:09:53;3.00;99.90
49321;DHT22;35817;44.498;0.166;2022-12-05T01:12:19;3.00;99.90
49321;DHT22;35817;44.498;0.166;2022-12-05T01:14:45;2.90;99.90
49321;DHT22;35817;44.498;0.166;2022-12-05T01:17:10;3.00;99.90
49321;DHT22;35817;44.498;0.166;2022-12-05T01:19:36;2.90;99.90
49321;DHT22;35817;44.498;0.166;2022-12-05T01:22:02;2.90;99.90
49321;DHT22;35817;44.498;0.166;2022-12-05T01:24:28;2.80;99.90
49321;DHT22;35817;44.498;0.166;2022-12-05T01:26:55;2.80;99.90
49321;DHT22;35817;44.498;0.166;2022-12-05T01:29:22;2.80;99.90
49321;DHT22;35817;44.498;0.166;2022-12-05T01:31:49;2.80;99.90
49321;DHT22;35817;44.498;0.166;2022-12-05T01:34:17;2.80;99.90
49321;DHT22;35817;44.498;0.166;2022-12-05T01:36:44;2.70;99.90
49321;DHT22;35817;44.498;0.166;2022-12-05T01:39:11;2.70;99.90
49321;DHT22;35817;44.498;0.166;2022-12-05T01:41:39;2.70;99.90
49321;DHT22;35817;44.498;0.166;2022-12-05T01:46:43;2.70;99.90
49321;DHT22;35817;44.498;0.166;2022-12-05T01:49:29;2.60;99.90
49321;DHT22;35817;44.498;0.166;2022-12-05T01:52:14;2.60;99.90
49321;DHT22;35817;44.498;0.166;2022-12-05T01:54:42;2.60;99.90
49321;DHT22;35817;44.498;0.166;2022-12-05T01:57:10;2.50;99.90
49321;DHT22;35817;44.498;0.166;2022-12-05T01:59:41;2.50;99.90
49321;DHT22;35817;44.498;0.166;2022-12-05T02:02:09;2.50;99.90
49321;DHT22;35817;44.498;0.166;2022-12-05T02:04:40;2.50;99.90
49321;DHT22;35817;44.498;0.166;2022-12-05T02:07:08;2.50;99.90
49321;DHT22;35817;44.498;0.166;2022-12-05T02:09:34;2.50;99.90
49321;DHT22;35817;44.498;0.166;2022-12-05T02:12:01;2.50;99.90
49321;DHT22;35817;44.498;0.166;2022-12-05T02:14:40;2.50;99.90
49321;DHT22;35817;44.498;0.166;2022-12-05T02:27:42;2.40;99.90
49321;DHT22;35817;44.498;0.166;2022-12-05T02:30:15;2.40;99.90
49321;DHT22;35817;44.498;0.166;2022-12-05T02:43:52;2.30;99.90
49321;DHT22;35817;44.498;0.166;2022-12-05T02:46:25;2.30;99.90
49321;DHT22;35817;44.498;0.166;2022-12-05T02:48:56;2.30;99.90
49321;DHT22;35817;44.498;0.166;2022-12-05T02:51:27;2.20;99.90
49321;DHT22;35817;44.498;0.166;2022-12-05T02:53:56;2.20;99.90
49321;DHT22;35817;44.498;0.166;2022-12-05T02:56:23;2.20;99.90
49321;DHT22;35817;44.498;0.166;2022-12-05T02:58:53;2.20;99.90
49321;DHT22;35817;44.498;0.166;2022-12-05T03:01:22;2.10;99.90
49321;DHT22;35817;44.498;0.166;2022-12-05T03:03:48;2.10;99.90
49321;DHT22;35817;44.498;0.166;2022-12-05T03:08:57;2.00;99.90
49321;DHT22;35817;44.498;0.166;2022-12-05T03:11:29;2.00;99.90
49321;DHT22;35817;44.498;0.166;2022-12-05T03:13:59;2.00;99.90
49321;DHT22;35817;44.498;0.166;2022-12-05T03:16:34;2.00;99.90
49321;DHT22;35817;44.498;0.166;2022-12-05T03:19:09;2.00;99.90
49321;DHT22;35817;44.498;0.166;2022-12-05T03:21:39;2.00;99.90
49321;DHT22;35817;44.498;0.166;2022-12-05T03:24:06;2.00;99.90
49321;DHT22;35817;44.498;0.166;2022-12-05T03:29:48;1.90;99.90
49321;DHT22;35817;44.498;0.166;2022-12-05T03:35:19;1.90;99.90
49321;DHT22;35817;44.498;0.166;2022-12-05T03:40:52;1.80;99.90
49321;DHT22;35817;44.498;0.166;2022-12-05T03:48:39;1.70;99.90
49321;DHT22;35817;44.498;0.166;2022-12-05T03:51:10;1.70;99.90
49321;DHT22;35817;44.498;0.166;2022-12-05T03:53:48;1.60;99.90
49321;DHT22;35817;44.498;0.166;2022-12-05T03:56:30;1.70;99.90
49321;DHT22;35817;44.498;0.166;2022-12-05T03:59:15;1.70;99.90
49321;DHT22;35817;44.498;0.166;2022-12-05T04:01:47;1.70;99.90
49321;DHT22;35817;44.498;0.166;2022-12-05T04:04:17;1.70;99.90
49321;DHT22;35817;44.498;0.166;2022-12-05T04:06:47;1.70;99.90
49321;DHT22;35817;44.498;0.166;2022-12-05T04:09:23;1.70;99.90
49321;DHT22;35817;44.498;0.166;2022-12-05T04:11:56;1.70;99.90
49321;DHT22;35817;44.498;0.166;2022-12-05T04:14:30;1.60;99.90
49321;DHT22;35817;44.498;0.166;2022-12-05T04:17:03;1.60;99.90
49321;DHT22;35817;44.498;0.166;2022-12-05T04:19:54;1.50;99.90
49321;DHT22;35817;44.498;0.166;2022-12-05T04:22:40;1.50;99.90
49321;DHT22;35817;44.498;0.166;2022-12-05T04:25:10;1.50;99.90
49321;DHT22;35817;44.498;0.166;2022-12-05T04:28:22;1.50;99.90
49321;DHT22;35817;44.498;0.166;2022-12-05T04:41:27;1.40;99.90
49321;DHT22;35817;44.498;0.166;2022-12-05T04:43:56;1.40;99.90
49321;DHT22;35817;44.498;0.166;2022-12-05T04:46:23;1.30;99.90
49321;DHT22;35817;44.498;0.166;2022-12-05T04:48:54;1.20;99.90
49321;DHT22;35817;44.498;0.166;2022-12-05T04:51:24;1.20;99.90
49321;DHT22;35817;44.498;0.166;2022-12-05T04:53:56;1.10;99.90
49321;DHT22;35817;44.498;0.166;2022-12-05T04:56:28;1.10;99.90
49321;DHT22;35817;44.498;0.166;2022-12-05T04:58:55;1.10;99.90
49321;DHT22;35817;44.498;0.166;2022-12-05T05:01:34;1.00;99.90
49321;DHT22;35817;44.498;0.166;2022-12-05T05:04:13;1.00;99.90
49321;DHT22;35817;44.498;0.166;2022-12-05T05:06:41;1.00;99.90
49321;DHT22;35817;44.498;0.166;2022-12-05T05:09:07;0.90;99.90
49321;DHT22;35817;44.498;0.166;2022-12-05T05:11:35;0.90;99.90
49321;DHT22;35817;44.498;0.166;2022-12-05T05:14:02;0.80;99.90
49321;DHT22;35817;44.498;0.166;2022-12-05T05:16:36;0.80;99.90
49321;DHT22;35817;44.498;0.166;2022-12-05T05:19:03;0.80;99.90
49321;DHT22;35817;44.498;0.166;2022-12-05T05:21:36;0.80;99.90
49321;DHT22;35817;44.498;0.166;2022-12-05T05:24:03;0.80;99.90
49321;DHT22;35817;44.498;0.166;2022-12-05T05:26:29;0.80;99.90
49321;DHT22;35817;44.498;0.166;2022-12-05T05:28:56;0.80;99.90
49321;DHT22;35817;44.498;0.166;2022-12-05T05:31:23;0.70;99.90
49321;DHT22;35817;44.498;0.166;2022-12-05T05:33:54;0.70;99.90
49321;DHT22;35817;44.498;0.166;2022-12-05T05:36:22;0.60;99.90
49321;DHT22;35817;44.498;0.166;2022-12-05T05:38:49;0.60;99.90
49321;DHT22;35817;44.498;0.166;2022-12-05T05:43:47;0.60;99.90
49321;DHT22;35817;44.498;0.166;2022-12-05T05:46:14;0.60;99.90
49321;DHT22;35817;44.498;0.166;2022-12-05T05:48:40;0.50;99.90
49321;DHT22;35817;44.498;0.166;2022-12-05T05:51:09;0.60;99.90
49321;DHT22;35817;44.498;0.166;2022-12-05T05:53:35;0.50;99.90
49321;DHT22;35817;44.498;0.166;2022-12-05T05:56:05;0.60;99.90
49321;DHT22;35817;44.498;0.166;2022-12-05T05:58:32;0.60;99.90
49321;DHT22;35817;44.498;0.166;2022-12-05T06:01:09;0.60;99.90
49321;DHT22;35817;44.498;0.166;2022-12-05T06:03:36;0.60;99.90
49321;DHT22;35817;44.498;0.166;2022-12-05T06:06:04;0.60;99.90
49321;DHT22;35817;44.498;0.166;2022-12-05T06:08:33;0.60;99.90
49321;DHT22;35817;44.498;0.166;2022-12-05T06:10:59;0.70;99.90
49321;DHT22;35817;44.498;0.166;2022-12-05T06:13:25;0.70;99.90
49321;DHT22;35817;44.498;0.166;2022-12-05T06:15:51;0.80;99.90
49321;DHT22;35817;44.498;0.166;2022-12-05T06:18:16;0.70;99.90
49321;DHT22;35817;44.498;0.166;2022-12-05T06:20:51;0.80;99.90
49321;DHT22;35817;44.498;0.166;2022-12-05T06:23:16;0.80;99.90
49321;DHT22;35817;44.498;0.166;2022-12-05T06:25:49;0.90;99.90
49321;DHT22;35817;44.498;0.166;2022-12-05T06:28:16;1.00;99.90
49321;DHT22;35817;44.498;0.166;2022-12-05T06:30:42;1.00;99.90
49321;DHT22;35817;44.498;0.166;2022-12-05T06:33:08;1.10;99.90
49321;DHT22;35817;44.498;0.166;2022-12-05T06:35:34;1.10;99.90
49321;DHT22;35817;44.498;0.166;2022-12-05T06:37:59;1.10;99.90
49321;DHT22;35817;44.498;0.166;2022-12-05T06:40:25;1.20;99.90
49321;DHT22;35817;44.498;0.166;2022-12-05T06:42:51;1.20;99.90
49321;DHT22;35817;44.498;0.166;2022-12-05T06:45:17;1.30;99.90
49321;DHT22;35817;44.498;0.166;2022-12-05T06:47:43;1.30;99.90
49321;DHT22;35817;44.498;0.166;2022-12-05T06:50:09;1.40;99.90
49321;DHT22;35817;44.498;0.166;2022-12-05T06:52:35;1.40;99.90
49321;DHT22;35817;44.498;0.166;2022-12-05T06:55:01;1.50;99.90
49321;DHT22;35817;44.498;0.166;2022-12-05T06:57:27;1.50;99.90
49321;DHT22;35817;44.498;0.166;2022-12-05T06:59:53;1.60;99.90
49321;DHT22;35817;44.498;0.166;2022-12-05T07:02:39;1.60;99.90
49321;DHT22;35817;44.498;0.166;2022-12-05T07:05:07;1.70;99.90
49321;DHT22;35817;44.498;0.166;2022-12-05T07:07:33;1.70;99.90
49321;DHT22;35817;44.498;0.166;2022-12-05T07:09:58;1.80;99.90
49321;DHT22;35817;44.498;0.166;2022-12-05T07:12:24;1.80;99.90
49321;DHT22;35817;44.498;0.166;2022-12-05T07:14:50;1.90;99.90
49321;DHT22;35817;44.498;0.166;2022-12-05T07:17:17;1.90;99.90
49321;DHT22;35817;44.498;0.166;2022-12-05T07:19:45;1.90;99.90
49321;DHT22;35817;44.498;0.166;2022-12-05T07:22:11;2.00;99.90
49321;DHT22;35817;44.498;0.166;2022-12-05T07:24:36;2.10;99.90
49321;DHT22;35817;44.498;0.166;2022-12-05T07:27:02;2.10;99.90
49321;DHT22;35817;44.498;0.166;2022-12-05T07:29:28;2.20;99.90
49321;DHT22;35817;44.498;0.166;2022-12-05T07:31:54;2.10;99.90
49321;DHT22;35817;44.498;0.166;2022-12-05T07:34:20;2.20;99.90
49321;DHT22;35817;44.498;0.166;2022-12-05T07:36:46;2.20;99.90
49321;DHT22;35817;44.498;0.166;2022-12-05T07:39:11;2.20;99.90
49321;DHT22;35817;44.498;0.166;2022-12-05T07:41:37;2.30;99.90
49321;DHT22;35817;44.498;0.166;2022-12-05T07:44:03;2.30;99.90
49321;DHT22;35817;44.498;0.166;2022-12-05T07:46:30;2.40;99.90
49321;DHT22;35817;44.498;0.166;2022-12-05T07:48:56;2.50;99.90
49321;DHT22;35817;44.498;0.166;2022-12-05T07:51:22;2.50;99.90
49321;DHT22;35817;44.498;0.166;2022-12-05T07:53:48;2.60;99.90
49321;DHT22;35817;44.498;0.166;2022-12-05T07:56:15;2.70;99.90
49321;DHT22;35817;44.498;0.166;2022-12-05T07:58:46;2.70;99.90
49321;DHT22;35817;44.498;0.166;2022-12-05T08:01:16;2.70;99.90
49321;DHT22;35817;44.498;0.166;2022-12-05T08:03:42;2.70;99.90
49321;DHT22;35817;44.498;0.166;2022-12-05T08:06:12;2.80;99.90
49321;DHT22;35817;44.498;0.166;2022-12-05T08:08:40;2.80;99.90
49321;DHT22;35817;44.498;0.166;2022-12-05T08:11:10;2.90;99.90
49321;DHT22;35817;44.498;0.166;2022-12-05T08:13:36;3.00;99.90
49321;DHT22;35817;44.498;0.166;2022-12-05T08:16:04;3.00;99.90
49321;DHT22;35817;44.498;0.166;2022-12-05T08:18:30;3.10;99.90
49321;DHT22;35817;44.498;0.166;2022-12-05T08:21:05;3.10;99.90
49321;DHT22;35817;44.498;0.166;2022-12-05T08:23:32;3.20;99.90
49321;DHT22;35817;44.498;0.166;2022-12-05T08:26:03;3.30;99.90
49321;DHT22;35817;44.498;0.166;2022-12-05T08:28:29;3.40;99.90
49321;DHT22;35817;44.498;0.166;2022-12-05T08:30:55;3.50;99.90
49321;DHT22;35817;44.498;0.166;2022-12-05T08:33:21;3.60;99.90
49321;DHT22;35817;44.498;0.166;2022-12-05T08:35:46;3.70;99.90
49321;DHT22;35817;44.498;0.166;2022-12-05T08:38:12;3.80;99.90
49321;DHT22;35817;44.498;0.166;2022-12-05T08:43:13;3.90;99.90
49321;DHT22;35817;44.498;0.166;2022-12-05T08:45:49;4.00;99.90
49321;DHT22;35817;44.498;0.166;2022-12-05T08:48:26;4.10;99.90
49321;DHT22;35817;44.498;0.166;2022-12-05T08:50:52;4.20;99.90
49321;DHT22;35817;44.498;0.166;2022-12-05T08:53:18;4.20;99.90
49321;DHT22;35817;44.498;0.166;2022-12-05T08:55:50;4.30;99.90
49321;DHT22;35817;44.498;0.166;2022-12-05T08:58:19;4.40;99.90
49321;DHT22;35817;44.498;0.166;2022-12-05T09:00:45;4.50;99.90
49321;DHT22;35817;44.498;0.166;2022-12-05T09:03:12;4.50;99.90
49321;DHT22;35817;44.498;0.166;2022-12-05T09:06:04;4.60;99.90
49321;DHT22;35817;44.498;0.166;2022-12-05T09:08:33;4.60;99.90
49321;DHT22;35817;44.498;0.166;2022-12-05T09:11:24;4.60;99.90
49321;DHT22;35817;44.498;0.166;2022-12-05T09:14:05;4.70;99.90
49321;DHT22;35817;44.498;0.166;2022-12-05T09:16:48;4.70;99.90
49321;DHT22;35817;44.498;0.166;2022-12-05T09:19:20;5.00;99.90
49321;DHT22;35817;44.498;0.166;2022-12-05T09:22:11;5.30;99.90
49321;DHT22;35817;44.498;0.166;2022-12-05T09:24:39;5.80;99.90
49321;DHT22;35817;44.498;0.166;2022-12-05T09:27:20;6.40;99.90
49321;DHT22;35817;44.498;0.166;2022-12-05T09:29:51;6.70;99.90
49321;DHT22;35817;44.498;0.166;2022-12-05T09:35:39;6.90;99.90
49321;DHT22;35817;44.498;0.166;2022-12-05T09:38:10;7.20;99.90
49321;DHT22;35817;44.498;0.166;2022-12-05T09:40:41;7.60;99.90
49321;DHT22;35817;44.498;0.166;2022-12-05T09:43:26;8.20;99.90
49321;DHT22;35817;44.498;0.166;2022-12-05T09:46:03;8.80;99.90
49321;DHT22;35817;44.498;0.166;2022-12-05T09:48:38;9.30;99.90
49321;DHT22;35817;44.498;0.166;2022-12-05T09:51:08;10.00;99.90
49321;DHT22;35817;44.498;0.166;2022-12-05T09:53:38;10.50;99.90
49321;DHT22;35817;44.498;0.166;2022-12-05T09:56:26;10.70;98.50
49321;DHT22;35817;44.498;0.166;2022-12-05T09:58:54;11.00;97.90
49321;DHT22;35817;44.498;0.166;2022-12-05T10:15:22;12.90;90.00
49321;DHT22;35817;44.498;0.166;2022-12-05T10:20:47;13.60;84.80
49321;DHT22;35817;44.498;0.166;2022-12-05T10:23:28;14.00;82.20
49321;DHT22;35817;44.498;0.166;2022-12-05T10:25:57;14.20;80.50
49321;DHT22;35817;44.498;0.166;2022-12-05T10:28:32;14.40;77.90
49321;DHT22;35817;44.498;0.166;2022-12-05T10:31:03;14.70;78.40
49321;DHT22;35817;44.498;0.166;2022-12-05T10:33:42;14.90;76.20
49321;DHT22;35817;44.498;0.166;2022-12-05T10:36:29;15.30;76.00
49321;DHT22;35817;44.498;0.166;2022-12-05T10:39:03;15.60;71.30
49321;DHT22;35817;44.498;0.166;2022-12-05T10:41:29;15.80;70.00
49321;DHT22;35817;44.498;0.166;2022-12-05T10:44:01;15.70;68.30
49321;DHT22;35817;44.498;0.166;2022-12-05T10:46:29;15.80;68.80
49321;DHT22;35817;44.498;0.166;2022-12-05T10:48:55;16.20;67.80
49321;DHT22;35817;44.498;0.166;2022-12-05T10:51:27;16.50;66.70
49321;DHT22;35817;44.498;0.166;2022-12-05T10:53:53;16.70;66.90
49321;DHT22;35817;44.498;0.166;2022-12-05T10:56:46;17.20;65.90
49321;DHT22;35817;44.498;0.166;2022-12-05T10:59:14;17.20;63.20
49321;DHT22;35817;44.498;0.166;2022-12-05T11:01:57;17.30;63.70
49321;DHT22;35817;44.498;0.166;2022-12-05T11:44:48;19.40;55.70
49321;DHT22;35817;44.498;0.166;2022-12-05T12:01:51;20.60;51.80
49321;DHT22;35817;44.498;0.166;2022-12-05T12:04:23;20.50;51.40
49321;DHT22;35817;44.498;0.166;2022-12-05T12:31:56;22.00;49.10
49321;DHT22;35817;44.498;0.166;2022-12-05T12:37:19;22.70;47.60
49321;DHT22;35817;44.498;0.166;2022-12-05T12:40:33;22.60;47.40
49321;DHT22;35817;44.498;0.166;2022-12-05T12:51:12;22.40;47.40
49321;DHT22;35817;44.498;0.166;2022-12-05T13:01:38;22.20;47.60
49321;DHT22;35817;44.498;0.166;2022-12-05T13:04:08;22.50;47.00
49321;DHT22;35817;44.498;0.166;2022-12-05T13:09:10;22.50;46.50
49321;DHT22;35817;44.498;0.166;2022-12-05T13:11:39;22.80;46.00
49321;DHT22;35817;44.498;0.166;2022-12-05T13:14:10;23.20;45.50
49321;DHT22;35817;44.498;0.166;2022-12-05T13:16:41;23.10;43.70
49321;DHT22;35817;44.498;0.166;2022-12-05T13:21:52;22.70;44.20
49321;DHT22;35817;44.498;0.166;2022-12-05T13:24:22;22.50;43.80
49321;DHT22;35817;44.498;0.166;2022-12-05T13:26:49;22.40;43.90
49321;DHT22;35817;44.498;0.166;2022-12-05T13:29:19;22.30;44.10
49321;DHT22;35817;44.498;0.166;2022-12-05T13:31:45;22.30;44.90
49321;DHT22;35817;44.498;0.166;2022-12-05T13:37:00;22.20;44.80
49321;DHT22;35817;44.498;0.166;2022-12-05T13:39:52;22.30;44.90
49321;DHT22;35817;44.498;0.166;2022-12-05T13:42:36;22.60;44.80
49321;DHT22;35817;44.498;0.166;2022-12-05T13:50:13;22.60;44.60
49321;DHT22;35817;44.498;0.166;2022-12-05T13:52:44;22.70;44.50
49321;DHT22;35817;44.498;0.166;2022-12-05T13:55:20;22.70;44.80
49321;DHT22;35817;44.498;0.166;2022-12-05T13:57:48;22.50;44.80
49321;DHT22;35817;44.498;0.166;2022-12-05T14:13:37;21.70;45.50
49321;DHT22;35817;44.498;0.166;2022-12-05T14:15:55;21.70;45.10
49321;DHT22;35817;44.498;0.166;2022-12-05T14:32:06;17.90;49.10
49321;DHT22;35817;44.498;0.166;2022-12-05T14:34:37;17.00;50.40
49321;DHT22;35817;44.498;0.166;2022-12-05T14:39:42;15.70;52.90
49321;DHT22;35817;44.498;0.166;2022-12-05T14:45:27;14.80;54.70
49321;DHT22;35817;44.498;0.166;2022-12-05T14:47:55;14.30;55.80
49321;DHT22;35817;44.498;0.166;2022-12-05T14:50:44;13.90;56.80
49321;DHT22;35817;44.498;0.166;2022-12-05T14:58:32;13.00;59.10
49321;DHT22;35817;44.498;0.166;2022-12-05T15:01:12;12.80;59.80
49321;DHT22;35817;44.498;0.166;2022-12-05T15:03:41;12.60;60.30
49321;DHT22;35817;44.498;0.166;2022-12-05T15:06:14;12.50;60.90
49321;DHT22;35817;44.498;0.166;2022-12-05T15:08:49;12.40;61.40
49321;DHT22;35817;44.498;0.166;2022-12-05T15:11:18;12.20;61.50
49321;DHT22;35817;44.498;0.166;2022-12-05T15:16:36;12.00;62.10
49321;DHT22;35817;44.498;0.166;2022-12-05T15:19:11;11.90;62.50
49321;DHT22;35817;44.498;0.166;2022-12-05T15:21:43;11.70;63.00
49321;DHT22;35817;44.498;0.166;2022-12-05T15:24:13;11.60;63.50
49321;DHT22;35817;44.498;0.166;2022-12-05T15:26:43;11.50;63.90
49321;DHT22;35817;44.498;0.166;2022-12-05T15:31:51;11.20;64.40
49321;DHT22;35817;44.498;0.166;2022-12-05T15:36:48;11.00;65.00
49321;DHT22;35817;44.498;0.166;2022-12-05T15:39:21;11.00;65.50
49321;DHT22;35817;44.498;0.166;2022-12-05T15:41:55;11.00;65.60
49321;DHT22;35817;44.498;0.166;2022-12-05T15:44:22;10.90;65.90
49321;DHT22;35817;44.498;0.166;2022-12-05T15:46:53;10.90;65.90
49321;DHT22;35817;44.498;0.166;2022-12-05T15:49:24;10.80;66.40
49321;DHT22;35817;44.498;0.166;2022-12-05T15:52:14;10.70;66.40
49321;DHT22;35817;44.498;0.166;2022-12-05T15:54:43;10.60;66.80
49321;DHT22;35817;44.498;0.166;2022-12-05T15:57:16;10.60;67.10
49321;DHT22;35817;44.498;0.166;2022-12-05T15:59:51;10.50;67.30
49321;DHT22;35817;44.498;0.166;2022-12-05T16:02:28;10.40;67.60
49321;DHT22;35817;44.498;0.166;2022-12-05T16:04:58;10.30;67.80
49321;DHT22;35817;44.498;0.166;2022-12-05T16:07:28;10.30;68.30
49321;DHT22;35817;44.498;0.166;2022-12-05T16:09:57;10.20;68.70
49321;DHT22;35817;44.498;0.166;2022-12-05T16:12:24;10.10;68.80
49321;DHT22;35817;44.498;0.166;2022-12-05T16:14:54;10.00;69.10
49321;DHT22;35817;44.498;0.166;2022-12-05T16:17:21;9.90;68.90
49321;DHT22;35817;44.498;0.166;2022-12-05T16:19:47;9.80;68.90
49321;DHT22;35817;44.498;0.166;2022-12-05T16:24:47;9.70;70.40
49321;DHT22;35817;44.498;0.166;2022-12-05T16:27:24;9.60;70.20
49321;DHT22;35817;44.498;0.166;2022-12-05T16:30:07;9.60;70.50
49321;DHT22;35817;44.498;0.166;2022-12-05T16:32:35;9.50;70.80
49321;DHT22;35817;44.498;0.166;2022-12-05T16:35:02;9.50;71.00
49321;DHT22;35817;44.498;0.166;2022-12-05T16:37:29;9.40;70.90
49321;DHT22;35817;44.498;0.166;2022-12-05T16:39:55;9.40;70.80
49321;DHT22;35817;44.498;0.166;2022-12-05T16:42:24;9.30;71.10
49321;DHT22;35817;44.498;0.166;2022-12-05T16:45:00;9.30;71.50
49321;DHT22;35817;44.498;0.166;2022-12-05T16:50:35;9.10;71.90
49321;DHT22;35817;44.498;0.166;2022-12-05T16:53:17;9.00;71.80
49321;DHT22;35817;44.498;0.166;2022-12-05T16:55:43;9.00;72.70
49321;DHT22;35817;44.498;0.166;2022-12-05T16:58:24;8.90;72.90
49321;DHT22;35817;44.498;0.166;2022-12-05T17:00:50;8.80;72.70
49321;DHT22;35817;44.498;0.166;2022-12-05T17:03:16;8.70;73.00
49321;DHT22;35817;44.498;0.166;2022-12-05T17:05:42;8.60;73.00
49321;DHT22;35817;44.498;0.166;2022-12-05T17:08:08;8.50;73.30
49321;DHT22;35817;44.498;0.166;2022-12-05T17:10:33;8.40;73.80
49321;DHT22;35817;44.498;0.166;2022-12-05T17:12:59;8.40;74.20
49321;DHT22;35817;44.498;0.166;2022-12-05T17:15:25;8.40;74.40
49321;DHT22;35817;44.498;0.166;2022-12-05T17:17:51;8.40;74.60
49321;DHT22;35817;44.498;0.166;2022-12-05T17:20:16;8.30;74.50
49321;DHT22;35817;44.498;0.166;2022-12-05T17:22:42;8.30;74.40
49321;DHT22;35817;44.498;0.166;2022-12-05T17:27:42;8.20;74.60
49321;DHT22;35817;44.498;0.166;2022-12-05T17:30:08;8.10;74.60
49321;DHT22;35817;44.498;0.166;2022-12-05T17:32:33;8.00;75.30
49321;DHT22;35817;44.498;0.166;2022-12-05T17:34:59;8.00;76.30
49321;DHT22;35817;44.498;0.166;2022-12-05T17:37:24;7.90;76.30
49321;DHT22;35817;44.498;0.166;2022-12-05T17:39:50;7.80;76.20
49321;DHT22;35817;44.498;0.166;2022-12-05T17:42:16;7.70;76.60
49321;DHT22;35817;44.498;0.166;2022-12-05T17:44:41;7.70;77.00
49321;DHT22;35817;44.498;0.166;2022-12-05T17:47:07;7.60;77.60
49321;DHT22;35817;44.498;0.166;2022-12-05T17:49:33;7.60;77.90
49321;DHT22;35817;44.498;0.166;2022-12-05T17:51:58;7.60;78.20
49321;DHT22;35817;44.498;0.166;2022-12-05T17:54:28;7.50;78.50
49321;DHT22;35817;44.498;0.166;2022-12-05T17:56:54;7.50;78.10
49321;DHT22;35817;44.498;0.166;2022-12-05T17:59:19;7.50;78.80
49321;DHT22;35817;44.498;0.166;2022-12-05T18:01:45;7.40;79.10
49321;DHT22;35817;44.498;0.166;2022-12-05T18:04:10;7.40;78.90
49321;DHT22;35817;44.498;0.166;2022-12-05T18:06:36;7.40;78.80
49321;DHT22;35817;44.498;0.166;2022-12-05T18:09:03;7.40;79.80
49321;DHT22;35817;44.498;0.166;2022-12-05T18:11:29;7.40;80.30
49321;DHT22;35817;44.498;0.166;2022-12-05T18:13:54;7.40;80.70
49321;DHT22;35817;44.498;0.166;2022-12-05T18:16:20;7.40;81.00
49321;DHT22;35817;44.498;0.166;2022-12-05T18:18:46;7.40;81.50
49321;DHT22;35817;44.498;0.166;2022-12-05T18:21:12;7.40;81.60
49321;DHT22;35817;44.498;0.166;2022-12-05T18:23:38;7.40;81.40
49321;DHT22;35817;44.498;0.166;2022-12-05T18:26:05;7.40;81.60
49321;DHT22;35817;44.498;0.166;2022-12-05T18:28:32;7.40;81.90
49321;DHT22;35817;44.498;0.166;2022-12-05T18:33:29;7.60;82.50
49321;DHT22;35817;44.498;0.166;2022-12-05T18:35:56;7.60;82.70
49321;DHT22;35817;44.498;0.166;2022-12-05T18:38:22;7.70;82.70
49321;DHT22;35817;44.498;0.166;2022-12-05T18:40:47;7.80;82.90
49321;DHT22;35817;44.498;0.166;2022-12-05T18:43:13;7.80;82.90
49321;DHT22;35817;44.498;0.166;2022-12-05T18:45:38;7.90;83.20
49321;DHT22;35817;44.498;0.166;2022-12-05T18:48:04;8.00;83.30
49321;DHT22;35817;44.498;0.166;2022-12-05T18:50:29;8.00;83.50
49321;DHT22;35817;44.498;0.166;2022-12-05T18:52:55;8.10;83.60
49321;DHT22;35817;44.498;0.166;2022-12-05T18:55:22;8.10;83.60
49321;DHT22;35817;44.498;0.166;2022-12-05T18:57:48;8.20;83.60
49321;DHT22;35817;44.498;0.166;2022-12-05T19:00:13;8.20;83.40
49321;DHT22;35817;44.498;0.166;2022-12-05T19:02:40;8.30;83.70
49321;DHT22;35817;44.498;0.166;2022-12-05T19:05:06;8.30;83.90
49321;DHT22;35817;44.498;0.166;2022-12-05T19:07:31;8.30;84.10
49321;DHT22;35817;44.498;0.166;2022-12-05T19:09:57;8.40;84.30
49321;DHT22;35817;44.498;0.166;2022-12-05T19:12:22;8.30;84.50
49321;DHT22;35817;44.498;0.166;2022-12-05T19:14:48;8.40;85.00
49321;DHT22;35817;44.498;0.166;2022-12-05T19:17:14;8.40;85.00
49321;DHT22;35817;44.498;0.166;2022-12-05T19:19:39;8.40;85.00
49321;DHT22;35817;44.498;0.166;2022-12-05T19:22:05;8.50;85.20
49321;DHT22;35817;44.498;0.166;2022-12-05T19:24:30;8.50;85.30
49321;DHT22;35817;44.498;0.166;2022-12-05T19:26:56;8.50;85.30
49321;DHT22;35817;44.498;0.166;2022-12-05T19:29:22;8.50;85.20
49321;DHT22;35817;44.498;0.166;2022-12-05T19:31:47;8.60;85.30
49321;DHT22;35817;44.498;0.166;2022-12-05T19:34:13;8.60;85.30
49321;DHT22;35817;44.498;0.166;2022-12-05T19:36:39;8.60;85.30
49321;DHT22;35817;44.498;0.166;2022-12-05T19:39:12;8.60;85.70
49321;DHT22;35817;44.498;0.166;2022-12-05T19:41:38;8.50;85.70
49321;DHT22;35817;44.498;0.166;2022-12-05T19:44:04;8.50;85.60
49321;DHT22;35817;44.498;0.166;2022-12-05T19:46:29;8.50;85.60
49321;DHT22;35817;44.498;0.166;2022-12-05T19:48:58;8.50;85.70
49321;DHT22;35817;44.498;0.166;2022-12-05T19:51:23;8.50;86.00
49321;DHT22;35817;44.498;0.166;2022-12-05T19:53:49;8.50;86.20
49321;DHT22;35817;44.498;0.166;2022-12-05T19:56:19;8.60;86.40
49321;DHT22;35817;44.498;0.166;2022-12-05T19:58:45;8.60;86.60
49321;DHT22;35817;44.498;0.166;2022-12-05T20:01:11;8.60;86.70
49321;DHT22;35817;44.498;0.166;2022-12-05T20:03:37;8.60;86.80